This is the latest recevied weather packets stored in our database for station/object CE4ERM-13. If no packets are shown the sender has not sent any weather packets the latest 1 day(s).
| Time | Temp. | Humidity | Pressure | Rain* | Wind** | Luminosity | Snow |
|---|---|---|---|---|---|---|---|
| 1777876646 | 19.44° C | 34% | 1018.4 hPa | - | - | - | - |
| 1777876046 | 20° C | 33% | 1018 hPa | - | - | - | - |
| 1777875618 | 19.44° C | 36% | 1018.4 hPa | - | - | - | - |
| 1777875446 | 20° C | 33% | 1018.2 hPa | - | - | - | - |
| 1777875018 | 19.44° C | 36% | 1019 hPa | - | - | - | - |
| 1777874845 | 19.44° C | 33% | 1019 hPa | - | - | - | - |
| 1777874245 | 20° C | 32% | 1019.2 hPa | - | - | - | - |
| 1777873817 | 19.44° C | 36% | 1018.7 hPa | - | - | - | - |
| 1777873644 | 20.56° C | 32% | 1017.9 hPa | - | - | - | - |
| 1777873217 | 19.44° C | 36% | 1020.1 hPa | - | - | - | - |
| 1777873043 | 20.56° C | 32% | 1018.1 hPa | - | - | - | - |
| 1777872450 | 20.56° C | 32% | 1018.2 hPa | - | - | - | - |
| 1777872017 | 20° C | 36% | 1019.1 hPa | - | - | - | - |
| 1777871843 | 20.56° C | 32% | 1018.5 hPa | - | - | - | - |
| 1777871417 | 20° C | 36% | 1019.6 hPa | - | - | - | - |
| 1777871242 | 20.56° C | 31% | 1018.9 hPa | - | - | - | - |
| 1777870642 | 21.11° C | 31% | 1018.7 hPa | - | - | - | - |
| 1777870215 | 20° C | 36% | 1023.5 hPa | - | - | - | - |
| 1777870042 | 21.11° C | 31% | 1019.3 hPa | - | - | - | - |
| 1777869614 | 20.56° C | 36% | 1019.6 hPa | - | - | - | - |
| 1777869442 | 21.11° C | 31% | 1018.5 hPa | - | - | - | - |
| 1777868840 | 21.11° C | 30% | 1018.6 hPa | - | - | - | - |
| 1777868240 | 21.67° C | 30% | 1019.3 hPa | - | - | - | - |
| 1777867812 | 20.56° C | 36% | 1019.7 hPa | - | - | - | - |
| 1777867639 | 21.67° C | 30% | 1019.4 hPa | - | - | - | - |
* Rain since midnight (hover to see other rain measurements)
** Current wind speed in m/s (hover to see current wind gust speed)